createdAt,value
2023-04-29T00:03:01.865Z,1.30
2023-04-29T00:08:05.210Z,1.10
2023-04-29T00:13:08.666Z,1.70
2023-04-29T00:18:14.113Z,1.40
2023-04-29T00:23:17.321Z,1.70
2023-04-29T00:28:20.540Z,1.30
2023-04-29T00:33:25.010Z,1.50
2023-04-29T00:38:28.208Z,1.20
2023-04-29T00:43:31.321Z,1.50
2023-04-29T00:48:35.764Z,1.33
2023-04-29T00:53:39.268Z,1.50
2023-04-29T00:58:45.825Z,1.40
2023-04-29T01:03:50.976Z,1.50
2023-04-29T01:09:07.350Z,1.40
2023-04-29T01:14:10.609Z,1.43
2023-04-29T01:19:20.976Z,1.30
2023-04-29T01:24:25.670Z,1.20
2023-04-29T01:29:36.412Z,1.17
2023-04-29T01:34:46.062Z,1.20
2023-04-29T01:39:58.947Z,1.30
2023-04-29T01:45:06.135Z,1.40
2023-04-29T01:50:10.079Z,1.40
2023-04-29T01:55:14.671Z,1.50
2023-04-29T02:00:17.800Z,1.77
2023-04-29T02:05:20.935Z,2.20
2023-04-29T02:10:25.448Z,2.00
2023-04-29T02:15:28.791Z,1.90
2023-04-29T02:20:31.850Z,1.70
2023-04-29T02:25:36.436Z,1.97
2023-04-29T02:30:39.547Z,1.63
2023-04-29T02:35:42.710Z,1.00
2023-04-29T02:40:48.093Z,1.20
2023-04-29T02:45:51.245Z,0.93
2023-04-29T02:50:54.364Z,1.13
2023-04-29T02:56:01.419Z,1.10
2023-04-29T03:01:04.909Z,0.90
2023-04-29T03:06:08.244Z,1.20
2023-04-29T03:11:12.708Z,1.10
2023-04-29T03:16:17.028Z,1.20
2023-04-29T03:21:20.221Z,1.33
2023-04-29T03:26:25.752Z,1.57
2023-04-29T03:31:29.024Z,1.57
2023-04-29T03:36:32.079Z,2.00
2023-04-29T03:41:36.680Z,1.70
2023-04-29T03:46:39.815Z,2.03
2023-04-29T03:51:43.068Z,2.13
2023-04-29T03:56:47.542Z,2.63
2023-04-29T04:01:50.846Z,2.30
2023-04-29T04:06:53.983Z,1.87
2023-04-29T04:11:58.969Z,1.87
2023-04-29T04:17:02.173Z,2.30
2023-04-29T04:22:05.389Z,3.00
2023-04-29T04:27:09.943Z,2.23
2023-04-29T04:32:13.083Z,2.00
2023-04-29T04:37:16.313Z,2.60
2023-04-29T04:42:20.774Z,2.33
2023-04-29T04:47:23.931Z,2.90
2023-04-29T04:52:27.135Z,2.87
2023-04-29T04:57:31.667Z,2.90
2023-04-29T05:02:34.913Z,3.63
2023-04-29T05:07:38.063Z,3.50
2023-04-29T05:12:42.503Z,3.43
2023-04-29T05:17:45.582Z,3.30
2023-04-29T05:22:48.668Z,3.00
2023-04-29T05:27:53.499Z,3.43
2023-04-29T05:32:56.863Z,3.40
2023-04-29T05:38:00.020Z,3.70
2023-04-29T05:43:04.497Z,3.73
2023-04-29T05:48:07.965Z,3.80
2023-04-29T05:53:11.250Z,4.30
2023-04-29T05:58:16.143Z,4.30
2023-04-29T06:03:19.342Z,3.60
2023-04-29T06:08:22.614Z,4.07
2023-04-29T06:13:27.380Z,3.80
2023-04-29T06:18:30.453Z,3.87
2023-04-29T06:23:33.754Z,3.53
2023-04-29T06:28:38.265Z,3.80
2023-04-29T06:33:41.406Z,3.63
2023-04-29T06:38:44.490Z,3.70
2023-04-29T06:43:49.112Z,4.03
2023-04-29T06:48:52.364Z,4.07
2023-04-29T06:53:55.470Z,3.50
2023-04-29T06:58:59.948Z,4.43
2023-04-29T07:04:03.118Z,4.53
2023-04-29T07:09:06.308Z,4.47
2023-04-29T07:14:10.774Z,4.30
2023-04-29T07:19:13.816Z,4.77
2023-04-29T07:24:16.960Z,4.37
2023-04-29T07:29:21.658Z,4.67
2023-04-29T07:34:24.736Z,5.20
2023-04-29T07:39:29.038Z,4.70
2023-04-29T07:44:33.464Z,4.93
2023-04-29T07:49:36.521Z,4.17
2023-04-29T07:54:39.602Z,5.17
2023-04-29T07:59:44.065Z,4.70
2023-04-29T08:04:47.622Z,4.43
2023-04-29T08:09:50.775Z,4.70
2023-04-29T08:14:55.353Z,4.43
2023-04-29T08:19:58.525Z,3.87
2023-04-29T08:25:03.148Z,3.80
2023-04-29T08:30:09.153Z,3.67
2023-04-29T08:35:12.227Z,3.67
2023-04-29T08:40:15.630Z,3.07
2023-04-29T08:45:22.380Z,3.00
2023-04-29T08:50:25.889Z,3.30
2023-04-29T08:55:28.995Z,2.90
2023-04-29T09:00:35.359Z,3.17
2023-04-29T09:05:41.954Z,2.87
2023-04-29T09:10:45.119Z,2.33
2023-04-29T09:15:49.583Z,2.07
2023-04-29T09:20:52.685Z,2.00
2023-04-29T09:25:58.323Z,1.87
2023-04-29T09:31:06.546Z,1.90
2023-04-29T09:36:09.908Z,1.93
2023-04-29T09:41:18.030Z,1.90
2023-04-29T09:46:22.541Z,1.90
2023-04-29T09:51:26.142Z,1.90
2023-04-29T09:56:30.954Z,1.80
2023-04-29T10:01:36.765Z,1.60
2023-04-29T10:06:43.335Z,1.37
2023-04-29T10:11:47.078Z,1.60
2023-04-29T10:16:55.610Z,1.37
2023-04-29T10:22:01.820Z,1.70
2023-04-29T10:27:09.195Z,1.60
2023-04-29T10:32:16.580Z,1.60
2023-04-29T10:37:20.374Z,1.80
2023-04-29T10:42:32.215Z,1.90
2023-04-29T10:47:36.698Z,2.20
2023-04-29T10:52:57.868Z,1.90
2023-04-29T10:58:01.046Z,1.93
2023-04-29T11:03:07.672Z,1.83
2023-04-29T11:08:12.911Z,2.00
2023-04-29T11:13:27.884Z,1.60
2023-04-29T11:18:32.959Z,1.87
2023-04-29T11:23:36.415Z,1.77
2023-04-29T11:28:40.147Z,1.77
2023-04-29T11:33:44.891Z,2.60
2023-04-29T11:38:48.397Z,2.23
2023-04-29T11:43:58.896Z,1.90
2023-04-29T11:49:03.657Z,1.93
2023-04-29T11:54:08.249Z,1.97
2023-04-29T11:59:11.606Z,1.80
2023-04-29T12:04:17.717Z,1.90
2023-04-29T12:09:24.408Z,1.80
2023-04-29T12:14:27.615Z,1.80
2023-04-29T12:19:32.397Z,2.00
2023-04-29T12:24:37.733Z,1.70
2023-04-29T12:29:41.722Z,1.77
2023-04-29T12:34:47.537Z,1.40
2023-04-29T12:39:51.510Z,1.50
2023-04-29T12:44:55.021Z,1.70
2023-04-29T12:49:59.775Z,1.20
2023-04-29T12:55:02.870Z,2.00
2023-04-29T13:00:07.467Z,1.63
2023-04-29T13:05:12.862Z,1.50
2023-04-29T13:10:16.422Z,1.77
2023-04-29T13:15:19.630Z,2.10
2023-04-29T13:20:24.137Z,1.37
2023-04-29T13:25:27.243Z,1.83
2023-04-29T13:30:30.385Z,1.77
2023-04-29T13:35:36.061Z,1.50
2023-04-29T13:40:45.490Z,1.00
2023-04-29T13:45:49.845Z,1.40
2023-04-29T13:57:01.978Z,1.57
2023-04-29T14:02:14.633Z,1.60
2023-04-29T14:06:49.024Z,1.70
2023-04-29T14:11:52.078Z,1.90
2023-04-29T14:16:55.168Z,2.20
2023-04-29T14:21:59.616Z,2.00
2023-04-29T14:27:03.396Z,2.97
2023-04-29T14:32:07.433Z,2.10
2023-04-29T14:37:11.945Z,2.23
2023-04-29T14:42:15.135Z,2.50
2023-04-29T14:47:18.312Z,2.40
2023-04-29T14:52:22.765Z,2.37
2023-04-29T14:57:25.847Z,2.50
2023-04-29T15:02:28.952Z,2.33
2023-04-29T15:07:33.805Z,2.00
2023-04-29T15:12:36.997Z,2.03
2023-04-29T15:17:40.779Z,2.37
2023-04-29T15:22:45.270Z,2.17
2023-04-29T15:27:48.370Z,2.50
2023-04-29T15:32:51.488Z,2.60
2023-04-29T15:37:56.563Z,2.60
2023-04-29T15:42:59.956Z,2.40
2023-04-29T15:48:03.229Z,3.17
2023-04-29T15:53:07.670Z,2.80
2023-04-29T15:58:10.802Z,2.83
2023-04-29T16:03:13.989Z,2.97
2023-04-29T16:08:18.597Z,3.63
2023-04-29T16:13:21.784Z,3.67
2023-04-29T16:18:24.866Z,3.23
2023-04-29T16:23:29.426Z,3.30
2023-04-29T16:28:32.515Z,3.20
2023-04-29T16:33:35.587Z,2.80
2023-04-29T16:38:40.055Z,2.90
2023-04-29T16:43:43.308Z,2.80
2023-04-29T16:48:46.409Z,3.10
2023-04-29T16:53:50.855Z,3.20
2023-04-29T16:58:54.416Z,2.30
2023-04-29T17:03:57.685Z,2.80
2023-04-29T17:09:02.454Z,2.90
2023-04-29T17:14:05.594Z,2.60
2023-04-29T17:19:09.186Z,2.60
2023-04-29T17:24:13.730Z,2.40
2023-04-29T17:29:16.836Z,2.57
2023-04-29T17:34:23.631Z,2.40
2023-04-29T17:39:28.100Z,2.27
2023-04-29T17:44:31.187Z,2.40
2023-04-29T17:49:34.252Z,2.30
2023-04-29T17:54:41.608Z,2.40
2023-04-29T17:59:44.715Z,2.20
2023-04-29T18:04:47.961Z,2.03
2023-04-29T18:09:52.621Z,2.10
2023-04-29T18:14:56.063Z,2.20
2023-04-29T18:19:59.134Z,2.37
2023-04-29T18:25:03.636Z,2.13
2023-04-29T18:30:08.313Z,2.07
2023-04-29T18:35:11.406Z,2.13
2023-04-29T18:40:16.073Z,2.00
2023-04-29T18:45:19.277Z,2.10
2023-04-29T18:50:22.384Z,2.00
2023-04-29T18:55:27.289Z,1.87
2023-04-29T19:00:30.674Z,1.67
2023-04-29T19:05:33.872Z,1.80
2023-04-29T19:10:38.348Z,1.80
2023-04-29T19:15:41.536Z,2.10
2023-04-29T19:20:44.705Z,2.00
2023-04-29T19:25:49.268Z,2.20
2023-04-29T19:30:52.376Z,2.30
2023-04-29T19:35:55.964Z,2.37
2023-04-29T19:41:00.440Z,2.37
2023-04-29T19:46:03.622Z,2.10
2023-04-29T19:51:08.446Z,2.20
2023-04-29T19:56:12.944Z,2.13
2023-04-29T20:01:16.102Z,2.03
2023-04-29T20:06:19.802Z,2.40
2023-04-29T20:11:24.872Z,2.30
2023-04-29T20:16:29.966Z,2.30
2023-04-29T20:21:33.635Z,2.30
2023-04-29T20:26:38.088Z,1.90
2023-04-29T20:31:41.364Z,2.27
2023-04-29T20:36:44.481Z,1.90
2023-04-29T20:41:49.754Z,2.17
2023-04-29T20:46:53.114Z,3.00
2023-04-29T20:51:56.232Z,3.17
2023-04-29T20:57:00.876Z,3.20
2023-04-29T21:02:04.011Z,2.73
2023-04-29T21:07:07.644Z,3.20
2023-04-29T21:12:14.897Z,3.20
2023-04-29T21:17:17.985Z,2.90
2023-04-29T21:22:21.047Z,2.70
2023-04-29T21:27:25.494Z,2.63
2023-04-29T21:32:28.588Z,2.50
2023-04-29T21:37:31.733Z,2.80
2023-04-29T21:42:36.745Z,2.67
2023-04-29T21:47:39.899Z,2.43
2023-04-29T21:52:43.077Z,2.50
2023-04-29T21:57:47.604Z,2.50
2023-04-29T22:02:50.738Z,2.50
2023-04-29T22:07:53.967Z,2.50
2023-04-29T22:12:58.565Z,2.50
2023-04-29T22:18:01.709Z,2.57
2023-04-29T22:23:04.855Z,2.13
2023-04-29T22:28:09.335Z,2.30
2023-04-29T22:33:14.109Z,2.43
2023-04-29T22:38:17.339Z,2.37
2023-04-29T22:43:21.858Z,2.50
2023-04-29T22:48:27.469Z,2.40
2023-04-29T22:53:31.046Z,2.50
2023-04-29T22:58:35.592Z,2.20
2023-04-29T23:03:38.767Z,2.40
2023-04-29T23:08:41.834Z,2.33
2023-04-29T23:13:46.276Z,2.50
2023-04-29T23:18:49.387Z,2.60
2023-04-29T23:23:52.516Z,2.80
2023-04-29T23:28:57.057Z,2.90
2023-04-29T23:34:00.996Z,3.07
2023-04-29T23:39:04.117Z,3.03
2023-04-29T23:44:08.606Z,3.40
2023-04-29T23:49:11.720Z,4.17
2023-04-29T23:54:14.773Z,4.30
2023-04-29T23:59:19.253Z,4.77
